WAT2950 EBCI-LEAS
Flight info
| Callsign | WAT2950 |
|---|---|
| Flight time | N/A |
| Altitude | 31000 |
| Route | CIV N872 LESDO DCT KOVIN/N0466F330 DCT NIDUV DCT KIHVI UN872 ERIGA DCT FUJTI DCT ATLEN/N0424F230 N872 DEVAR |
| Aircraft | B738/M-SDE2E3FGHIRWXY/LB1 |
Departure
| Time | N/A |
|---|---|
| Airport | Brussels South Charleroi Airport (EBCI) |
Arrival
| Time | 2026-05-08 21:19 |
|---|---|
| Airport | Asturias Airport (LEAS) |
| Time | Latitude | Longitude | Altitude | Speed | Heading |
|---|---|---|---|---|---|
| 2026-05-08 20:01 | 49.69940 | 2.83985 | 28337 ft | 473 kts | 239° |
| 2026-05-08 20:01 | 49.68042 | 2.79669 | 28732 ft | 471 kts | 239° |
| 2026-05-08 20:01 | 49.66264 | 2.75634 | 29096 ft | 469 kts | 239° |
| 2026-05-08 20:01 | 49.64428 | 2.71474 | 29458 ft | 467 kts | 239° |
| 2026-05-08 20:02 | 49.62600 | 2.67336 | 29845 ft | 466 kts | 239° |
| 2026-05-08 20:02 | 49.60780 | 2.63224 | 30200 ft | 464 kts | 239° |
| 2026-05-08 20:02 | 49.58959 | 2.59116 | 30490 ft | 463 kts | 239° |
| 2026-05-08 20:02 | 49.57169 | 2.55084 | 30741 ft | 463 kts | 239° |
| 2026-05-08 20:03 | 49.55352 | 2.50995 | 30981 ft | 462 kts | 239° |
| 2026-05-08 20:03 | 49.53530 | 2.46904 | 31067 ft | 464 kts | 239° |
| 2026-05-08 20:03 | 49.49877 | 2.38717 | 31072 ft | 463 kts | 239° |
| 2026-05-08 20:04 | 49.46239 | 2.30594 | 31069 ft | 460 kts | 239° |
| 2026-05-08 20:04 | 49.42606 | 2.22503 | 31068 ft | 459 kts | 238° |
| 2026-05-08 20:05 | 49.38978 | 2.14449 | 31076 ft | 458 kts | 238° |
| 2026-05-08 20:05 | 49.35371 | 2.06465 | 31076 ft | 458 kts | 238° |
| 2026-05-08 20:06 | 49.31737 | 1.98445 | 31070 ft | 458 kts | 238° |
| 2026-05-08 20:06 | 49.28095 | 1.90430 | 31048 ft | 458 kts | 238° |
| 2026-05-08 20:07 | 49.24445 | 1.82425 | 31064 ft | 459 kts | 237° |
| 2026-05-08 20:07 | 49.20813 | 1.74481 | 31063 ft | 459 kts | 237° |
| 2026-05-08 20:08 | 49.17146 | 1.66484 | 31068 ft | 459 kts | 237° |
| 2026-05-08 20:08 | 49.13476 | 1.58507 | 31076 ft | 459 kts | 237° |
| 2026-05-08 20:09 | 49.09795 | 1.50527 | 31061 ft | 459 kts | 237° |
| 2026-05-08 20:09 | 49.06132 | 1.42612 | 31071 ft | 460 kts | 236° |
| 2026-05-08 20:10 | 49.02443 | 1.34662 | 31066 ft | 460 kts | 236° |
| 2026-05-08 20:10 | 48.98745 | 1.26719 | 31083 ft | 460 kts | 236° |
| 2026-05-08 20:11 | 48.95041 | 1.18784 | 31072 ft | 460 kts | 236° |
| 2026-05-08 20:11 | 48.91333 | 1.10864 | 31076 ft | 460 kts | 236° |
| 2026-05-08 20:12 | 48.87644 | 1.03009 | 31071 ft | 460 kts | 236° |
| 2026-05-08 20:12 | 48.83923 | 0.95108 | 31068 ft | 460 kts | 235° |
| 2026-05-08 20:13 | 48.80198 | 0.87221 | 31051 ft | 460 kts | 235° |
| 2026-05-08 20:13 | 48.76464 | 0.79340 | 31058 ft | 460 kts | 235° |
| 2026-05-08 20:14 | 48.72722 | 0.71464 | 31059 ft | 460 kts | 235° |
| 2026-05-08 20:14 | 48.69013 | 0.63680 | 31052 ft | 461 kts | 234° |
| 2026-05-08 20:15 | 48.65245 | 0.55796 | 31049 ft | 461 kts | 234° |
| 2026-05-08 20:15 | 48.61485 | 0.47950 | 31050 ft | 461 kts | 234° |
| 2026-05-08 20:16 | 48.57714 | 0.40105 | 31043 ft | 461 kts | 234° |
| 2026-05-08 20:16 | 48.53963 | 0.32324 | 31048 ft | 461 kts | 234° |
| 2026-05-08 20:17 | 48.50182 | 0.24505 | 31034 ft | 462 kts | 234° |
| 2026-05-08 20:17 | 48.46394 | 0.16691 | 31035 ft | 462 kts | 233° |
| 2026-05-08 20:18 | 48.42597 | 0.08881 | 31039 ft | 462 kts | 233° |
| 2026-05-08 20:18 | 48.38820 | 0.01136 | 31037 ft | 462 kts | 233° |
| 2026-05-08 20:19 | 48.35013 | -0.06649 | 31026 ft | 462 kts | 233° |
| 2026-05-08 20:19 | 48.31197 | -0.14433 | 31020 ft | 463 kts | 233° |
| 2026-05-08 20:20 | 48.27372 | -0.22213 | 31020 ft | 463 kts | 232° |
| 2026-05-08 20:20 | 48.23543 | -0.29896 | 31018 ft | 463 kts | 232° |
| 2026-05-08 20:21 | 48.19621 | -0.37554 | 31011 ft | 463 kts | 231° |
| 2026-05-08 20:21 | 48.15690 | -0.45199 | 30999 ft | 463 kts | 231° |
| 2026-05-08 20:22 | 48.11756 | -0.52853 | 31003 ft | 463 kts | 231° |
| 2026-05-08 20:22 | 48.08490 | -0.59203 | 31001 ft | 464 kts | 231° |
| 2026-05-08 20:23 | 48.03910 | -0.68086 | 31007 ft | 466 kts | 231° |
| 2026-05-08 20:23 | 47.99924 | -0.75790 | 30998 ft | 470 kts | 231° |
| 2026-05-08 20:24 | 47.95913 | -0.83522 | 30999 ft | 472 kts | 230° |
| 2026-05-08 20:24 | 47.91915 | -0.91208 | 31001 ft | 472 kts | 230° |
| 2026-05-08 20:25 | 47.87885 | -0.98933 | 30997 ft | 472 kts | 230° |
| 2026-05-08 20:25 | 47.83849 | -1.06647 | 30993 ft | 472 kts | 230° |
| 2026-05-08 20:26 | 47.79809 | -1.14348 | 30985 ft | 472 kts | 230° |
| 2026-05-08 20:26 | 47.75797 | -1.21973 | 30979 ft | 471 kts | 229° |
| 2026-05-08 20:27 | 47.71749 | -1.29645 | 30979 ft | 471 kts | 229° |
| 2026-05-08 20:27 | 47.67700 | -1.37299 | 30975 ft | 472 kts | 229° |
| 2026-05-08 20:28 | 47.63644 | -1.44947 | 30977 ft | 472 kts | 229° |
| 2026-05-08 20:28 | 47.59596 | -1.52520 | 30968 ft | 471 kts | 227° |
| 2026-05-08 20:29 | 47.55266 | -1.59786 | 30970 ft | 470 kts | 224° |
| 2026-05-08 20:29 | 47.50839 | -1.66911 | 30967 ft | 470 kts | 224° |
| 2026-05-08 20:30 | 47.46441 | -1.74064 | 30964 ft | 470 kts | 224° |
| 2026-05-08 20:30 | 47.42082 | -1.81193 | 30968 ft | 470 kts | 224° |
| 2026-05-08 20:31 | 47.37693 | -1.88356 | 30963 ft | 470 kts | 224° |
| 2026-05-08 20:31 | 47.33817 | -1.93902 | 30963 ft | 465 kts | 213° |
| 2026-05-08 20:32 | 47.28005 | -1.99215 | 30970 ft | 461 kts | 207° |
| 2026-05-08 20:32 | 47.22520 | -2.03998 | 30968 ft | 462 kts | 207° |
| 2026-05-08 20:33 | 47.17016 | -2.08865 | 30964 ft | 462 kts | 207° |
| 2026-05-08 20:33 | 47.11522 | -2.13750 | 30963 ft | 462 kts | 207° |
| 2026-05-08 20:34 | 47.06030 | -2.18627 | 30954 ft | 461 kts | 207° |
| 2026-05-08 20:35 | 46.97823 | -2.25886 | 30955 ft | 461 kts | 207° |
| 2026-05-08 20:35 | 46.92328 | -2.30732 | 30944 ft | 461 kts | 207° |
| 2026-05-08 20:36 | 46.86832 | -2.35567 | 30941 ft | 461 kts | 207° |
| 2026-05-08 20:36 | 46.81334 | -2.40394 | 30946 ft | 461 kts | 207° |
| 2026-05-08 20:37 | 46.75871 | -2.45183 | 30939 ft | 461 kts | 207° |
| 2026-05-08 20:37 | 46.70375 | -2.49993 | 30940 ft | 461 kts | 207° |
| 2026-05-08 20:38 | 46.64874 | -2.54796 | 30935 ft | 461 kts | 207° |
| 2026-05-08 20:38 | 46.59411 | -2.59554 | 30936 ft | 461 kts | 206° |
| 2026-05-08 20:39 | 46.53917 | -2.64328 | 30938 ft | 460 kts | 206° |
| 2026-05-08 20:39 | 46.48415 | -2.69096 | 30938 ft | 460 kts | 206° |
| 2026-05-08 20:40 | 46.44235 | -2.72712 | 30936 ft | 460 kts | 206° |
| 2026-05-08 20:40 | 46.38740 | -2.77456 | 30935 ft | 460 kts | 206° |
| 2026-05-08 20:41 | 46.33280 | -2.82160 | 30930 ft | 460 kts | 206° |
| 2026-05-08 20:41 | 46.27785 | -2.86884 | 30931 ft | 460 kts | 207° |
| 2026-05-08 20:42 | 46.22661 | -2.92510 | 30936 ft | 465 kts | 216° |
| 2026-05-08 20:42 | 46.17752 | -2.98600 | 30930 ft | 465 kts | 216° |
| 2026-05-08 20:43 | 46.12866 | -3.04635 | 30932 ft | 465 kts | 216° |
| 2026-05-08 20:43 | 46.07930 | -3.10663 | 30925 ft | 465 kts | 216° |
| 2026-05-08 20:44 | 46.02982 | -3.16665 | 30925 ft | 465 kts | 216° |
| 2026-05-08 20:44 | 45.98028 | -3.22654 | 30925 ft | 465 kts | 216° |
| 2026-05-08 20:45 | 45.93075 | -3.28630 | 30922 ft | 465 kts | 216° |
| 2026-05-08 20:45 | 45.88148 | -3.34561 | 30921 ft | 465 kts | 216° |
| 2026-05-08 20:46 | 45.83187 | -3.40520 | 30923 ft | 465 kts | 216° |
| 2026-05-08 20:46 | 45.78220 | -3.46471 | 30918 ft | 465 kts | 216° |
| 2026-05-08 20:47 | 45.73255 | -3.52406 | 30918 ft | 465 kts | 216° |
| 2026-05-08 20:47 | 45.68320 | -3.58292 | 30917 ft | 464 kts | 216° |
| 2026-05-08 20:48 | 45.63357 | -3.64195 | 30915 ft | 464 kts | 216° |
| 2026-05-08 20:48 | 45.58401 | -3.70078 | 30916 ft | 463 kts | 216° |
| 2026-05-08 20:49 | 45.53446 | -3.75944 | 30912 ft | 462 kts | 216° |
| 2026-05-08 20:49 | 45.48534 | -3.81747 | 30911 ft | 461 kts | 216° |
| 2026-05-08 20:50 | 45.43594 | -3.87568 | 30909 ft | 460 kts | 216° |
| 2026-05-08 20:50 | 45.38662 | -3.93366 | 30919 ft | 460 kts | 216° |
| 2026-05-08 20:51 | 45.33733 | -3.99147 | 30908 ft | 459 kts | 216° |
| 2026-05-08 20:51 | 45.28860 | -4.04850 | 30909 ft | 458 kts | 216° |
| 2026-05-08 20:52 | 45.23952 | -4.10579 | 30913 ft | 456 kts | 217° |
| 2026-05-08 20:52 | 45.19055 | -4.16283 | 30909 ft | 454 kts | 217° |
| 2026-05-08 20:53 | 45.14176 | -4.21953 | 30912 ft | 453 kts | 217° |
| 2026-05-08 20:53 | 45.09348 | -4.27552 | 30908 ft | 451 kts | 217° |
| 2026-05-08 20:54 | 45.05285 | -4.32253 | 30908 ft | 450 kts | 217° |
| 2026-05-08 20:54 | 44.99717 | -4.38681 | 30909 ft | 449 kts | 218° |
| 2026-05-08 20:55 | 44.94885 | -4.44246 | 30911 ft | 448 kts | 218° |
| 2026-05-08 20:55 | 44.90062 | -4.49788 | 30910 ft | 447 kts | 218° |
| 2026-05-08 20:56 | 44.85273 | -4.55279 | 30914 ft | 446 kts | 218° |
| 2026-05-08 20:56 | 44.80459 | -4.60787 | 30912 ft | 446 kts | 218° |
| 2026-05-08 20:57 | 44.75649 | -4.66278 | 30917 ft | 445 kts | 218° |
| 2026-05-08 20:57 | 44.71005 | -4.71568 | 30915 ft | 444 kts | 218° |
| 2026-05-08 20:58 | 44.66233 | -4.76992 | 30916 ft | 444 kts | 218° |
| 2026-05-08 20:58 | 44.61432 | -4.82439 | 30915 ft | 444 kts | 218° |
| 2026-05-08 20:59 | 44.56635 | -4.87869 | 30913 ft | 441 kts | 218° |
| 2026-05-08 20:59 | 44.51896 | -4.93223 | 30916 ft | 436 kts | 218° |
| 2026-05-08 21:00 | 44.47164 | -4.98554 | 30330 ft | 441 kts | 218° |
| 2026-05-08 21:00 | 44.44813 | -5.01199 | 29581 ft | 439 kts | 219° |
| 2026-05-08 21:00 | 44.42434 | -5.03874 | 28689 ft | 438 kts | 219° |
| 2026-05-08 21:00 | 44.40064 | -5.06537 | 27799 ft | 437 kts | 219° |
| 2026-05-08 21:01 | 44.37693 | -5.09198 | 26894 ft | 437 kts | 219° |
| 2026-05-08 21:01 | 44.35320 | -5.11859 | 25953 ft | 438 kts | 219° |
| 2026-05-08 21:01 | 44.32954 | -5.14509 | 25296 ft | 433 kts | 219° |
| 2026-05-08 21:01 | 44.30617 | -5.17124 | 24610 ft | 429 kts | 219° |
| 2026-05-08 21:02 | 44.28292 | -5.19723 | 23863 ft | 427 kts | 219° |
| 2026-05-08 21:02 | 44.26015 | -5.22266 | 23152 ft | 423 kts | 219° |
| 2026-05-08 21:02 | 44.23727 | -5.24818 | 22412 ft | 419 kts | 219° |
| 2026-05-08 21:02 | 44.21468 | -5.27335 | 21763 ft | 413 kts | 219° |
| 2026-05-08 21:03 | 44.19237 | -5.29819 | 21109 ft | 408 kts | 219° |
| 2026-05-08 21:03 | 44.17030 | -5.32273 | 20462 ft | 404 kts | 219° |
| 2026-05-08 21:03 | 44.14844 | -5.34702 | 19820 ft | 400 kts | 219° |
| 2026-05-08 21:03 | 44.12673 | -5.37113 | 19197 ft | 397 kts | 219° |
| 2026-05-08 21:04 | 44.10522 | -5.39498 | 18582 ft | 394 kts | 219° |
| 2026-05-08 21:04 | 44.08383 | -5.41868 | 17924 ft | 392 kts | 219° |
| 2026-05-08 21:04 | 44.06289 | -5.44186 | 17242 ft | 389 kts | 219° |
| 2026-05-08 21:04 | 44.04181 | -5.46519 | 16617 ft | 385 kts | 218° |
| 2026-05-08 21:05 | 44.02092 | -5.48827 | 15990 ft | 382 kts | 218° |
| 2026-05-08 21:05 | 44.00017 | -5.51119 | 15374 ft | 379 kts | 218° |
| 2026-05-08 21:05 | 43.97956 | -5.53392 | 14775 ft | 377 kts | 218° |
| 2026-05-08 21:05 | 43.95923 | -5.55663 | 14178 ft | 375 kts | 221° |
| 2026-05-08 21:06 | 43.94274 | -5.58447 | 13539 ft | 375 kts | 239° |
| 2026-05-08 21:06 | 43.93270 | -5.61736 | 12846 ft | 375 kts | 249° |
| 2026-05-08 21:06 | 43.92436 | -5.65151 | 12222 ft | 373 kts | 250° |
| 2026-05-08 21:06 | 43.91626 | -5.68555 | 11625 ft | 370 kts | 250° |
| 2026-05-08 21:07 | 43.90821 | -5.71926 | 11203 ft | 363 kts | 250° |
| 2026-05-08 21:07 | 43.90040 | -5.75170 | 11070 ft | 348 kts | 250° |
| 2026-05-08 21:07 | 43.89278 | -5.78293 | 10926 ft | 336 kts | 250° |
| 2026-05-08 21:07 | 43.88538 | -5.81305 | 10774 ft | 324 kts | 249° |
| 2026-05-08 21:08 | 43.87819 | -5.84211 | 10642 ft | 314 kts | 249° |
| 2026-05-08 21:08 | 43.87131 | -5.86986 | 10515 ft | 304 kts | 249° |
| 2026-05-08 21:08 | 43.86454 | -5.89708 | 10392 ft | 294 kts | 249° |
| 2026-05-08 21:08 | 43.85796 | -5.92346 | 10271 ft | 285 kts | 249° |
| 2026-05-08 21:09 | 43.85160 | -5.94898 | 10154 ft | 276 kts | 249° |
| 2026-05-08 21:09 | 43.84540 | -5.97378 | 10036 ft | 268 kts | 249° |
| 2026-05-08 21:09 | 43.83938 | -5.99783 | 9870 ft | 262 kts | 249° |
| 2026-05-08 21:09 | 43.83340 | -6.02168 | 9588 ft | 261 kts | 249° |
| 2026-05-08 21:10 | 43.82747 | -6.04532 | 9308 ft | 259 kts | 249° |
| 2026-05-08 21:10 | 43.82165 | -6.06852 | 9040 ft | 258 kts | 249° |
| 2026-05-08 21:10 | 43.81578 | -6.09187 | 8769 ft | 256 kts | 249° |
| 2026-05-08 21:10 | 43.80994 | -6.11509 | 8497 ft | 255 kts | 249° |
| 2026-05-08 21:11 | 43.80432 | -6.13746 | 8237 ft | 253 kts | 249° |
| 2026-05-08 21:11 | 43.79844 | -6.16078 | 7967 ft | 252 kts | 249° |
| 2026-05-08 21:11 | 43.79268 | -6.18364 | 7702 ft | 251 kts | 249° |
| 2026-05-08 21:11 | 43.78695 | -6.20640 | 7437 ft | 250 kts | 249° |
| 2026-05-08 21:12 | 43.78123 | -6.22903 | 7178 ft | 249 kts | 249° |
| 2026-05-08 21:12 | 43.77560 | -6.25128 | 6921 ft | 248 kts | 249° |
| 2026-05-08 21:12 | 43.76991 | -6.27374 | 6662 ft | 247 kts | 249° |
| 2026-05-08 21:12 | 43.76248 | -6.29488 | 6375 ft | 244 kts | 226° |
| 2026-05-08 21:13 | 43.74901 | -6.30827 | 6141 ft | 239 kts | 202° |
| 2026-05-08 21:13 | 43.73323 | -6.31599 | 5897 ft | 244 kts | 196° |
| 2026-05-08 21:13 | 43.71672 | -6.32291 | 5632 ft | 252 kts | 195° |
| 2026-05-08 21:13 | 43.69979 | -6.33007 | 5351 ft | 256 kts | 196° |
| 2026-05-08 21:14 | 43.68283 | -6.33740 | 5060 ft | 255 kts | 196° |
| 2026-05-08 21:14 | 43.66599 | -6.34382 | 4770 ft | 253 kts | 184° |
| 2026-05-08 21:14 | 43.64888 | -6.34056 | 4497 ft | 249 kts | 155° |
| 2026-05-08 21:14 | 43.63512 | -6.32659 | 4218 ft | 247 kts | 129° |
| 2026-05-08 21:15 | 43.62692 | -6.30638 | 4080 ft | 236 kts | 110° |
| 2026-05-08 21:15 | 43.62191 | -6.28554 | 3979 ft | 222 kts | 107° |
| 2026-05-08 21:15 | 43.61732 | -6.26492 | 3498 ft | 226 kts | 107° |
| 2026-05-08 21:15 | 43.61271 | -6.24443 | 3169 ft | 220 kts | 107° |
| 2026-05-08 21:16 | 43.60828 | -6.22493 | 2898 ft | 212 kts | 107° |
| 2026-05-08 21:16 | 43.60395 | -6.20611 | 2629 ft | 199 kts | 108° |
| 2026-05-08 21:16 | 43.59988 | -6.18867 | 2404 ft | 183 kts | 108° |
| 2026-05-08 21:16 | 43.59610 | -6.17259 | 2172 ft | 172 kts | 107° |
| 2026-05-08 21:17 | 43.59257 | -6.15755 | 2018 ft | 156 kts | 107° |
| 2026-05-08 21:17 | 43.58937 | -6.14394 | 1862 ft | 148 kts | 107° |
| 2026-05-08 21:17 | 43.58618 | -6.13041 | 1648 ft | 147 kts | 107° |
| 2026-05-08 21:17 | 43.58311 | -6.11735 | 1452 ft | 144 kts | 107° |
| 2026-05-08 21:18 | 43.58002 | -6.10422 | 1247 ft | 144 kts | 108° |
| 2026-05-08 21:18 | 43.57692 | -6.09103 | 1116 ft | 145 kts | 108° |
| 2026-05-08 21:18 | 43.57379 | -6.07765 | 930 ft | 148 kts | 109° |
| 2026-05-08 21:18 | 43.57063 | -6.06424 | 723 ft | 146 kts | 109° |
| 2026-05-08 21:19 | 43.56753 | -6.05093 | 512 ft | 147 kts | 109° |
| 2026-05-08 21:19 | 43.56440 | -6.03798 | 408 ft | 132 kts | 110° |
| 2026-05-08 21:19 | 43.56203 | -6.02819 | 408 ft | 77 kts | 108° |
| 2026-05-08 21:19 | 43.56106 | -6.02406 | 403 ft | 19 kts | 107° |
| 2026-05-08 21:20 | 43.56070 | -6.02254 | 406 ft | 8 kts | 116° |
| 2026-05-08 21:20 | 43.56021 | -6.02219 | 407 ft | 8 kts | 183° |
| 2026-05-08 21:20 | 43.55981 | -6.02268 | 407 ft | 8 kts | 242° |
| 2026-05-08 21:20 | 43.55949 | -6.02357 | 403 ft | 14 kts | 247° |
| 2026-05-08 21:21 | 43.55965 | -6.02501 | 407 ft | 16 kts | 287° |
| 2026-05-08 21:21 | 43.55997 | -6.02643 | 404 ft | 15 kts | 288° |
| 2026-05-08 21:21 | 43.56028 | -6.02779 | 406 ft | 15 kts | 288° |
| 2026-05-08 21:21 | 43.56042 | -6.02840 | 406 ft | 9 kts | 285° |
| 2026-05-08 21:22 | 43.56039 | -6.02883 | 407 ft | 1 kts | 230° |
| 2026-05-08 21:22 | 43.56008 | -6.02910 | 407 ft | 10 kts | 217° |
| 2026-05-08 21:22 | 43.56004 | -6.03005 | 407 ft | 10 kts | 287° |
| 2026-05-08 21:22 | 43.56025 | -6.03098 | 407 ft | 10 kts | 287° |
| 2026-05-08 21:23 | 43.56023 | -6.03128 | 407 ft | 3 kts | 228° |
| 2026-05-08 21:23 | 43.56003 | -6.03138 | 407 ft | 3 kts | 198° |
| 2026-05-08 21:23 | 43.55990 | -6.03144 | 407 ft | 0 kts | 198° |